Time;durP1;ratioP1;P1;durP2;ratioP2;P2;SDS_P1;SDS_P2;PMS_P1;PMS_P2;Temp;Humidity;BMP_temperature;BMP_pressure;BME280_temperature;BME280_humidity;BME280_pressure;Samples;Min_cycle;Max_cycle;Signal;HPM_P1;HPM_P2
2022/05/27 00:00:53;;;;;;;13.88;10.98;;;;;;;23.05;93.53;99741.13;5092997;28;20206;-58
2022/05/27 00:03:21;;;;;;;11.77;10.35;;;;;;;23.10;92.67;99733.69;5092961;28;20201;-59
2022/05/27 00:05:51;;;;;;;15.20;10.68;;;;;;;23.10;92.54;99728.41;5092718;28;20266;-59
2022/05/27 00:08:18;;;;;;;13.48;10.75;;;;;;;23.01;91.92;99710.56;5092821;28;20195;-60
2022/05/27 00:10:45;;;;;;;13.10;10.15;;;;;;;22.97;91.24;99697.69;5092843;28;20286;-60
2022/05/27 00:13:12;;;;;;;14.68;10.55;;;;;;;23.06;90.94;99719.00;5093040;28;20199;-60
2022/05/27 00:15:41;;;;;;;13.45;11.23;;;;;;;23.04;91.05;99726.19;5092795;28;20203;-60
2022/05/27 00:18:09;;;;;;;14.30;11.13;;;;;;;23.03;91.30;99723.66;5092420;28;20219;-60
2022/05/27 00:20:37;;;;;;;11.30;10.30;;;;;;;23.08;90.64;99732.13;5092543;28;20199;-60
2022/05/27 00:23:06;;;;;;;14.73;10.95;;;;;;;23.05;90.56;99725.25;5092426;28;20199;-62
2022/05/27 00:25:33;;;;;;;13.13;10.80;;;;;;;23.05;90.13;99725.25;5092536;28;20195;-60
2022/05/27 00:28:00;;;;;;;12.18;11.05;;;;;;;23.05;90.16;99714.66;5092716;28;20191;-58
2022/05/27 00:30:28;;;;;;;12.45;11.00;;;;;;;22.95;90.41;99726.06;5092501;28;20217;-59
2022/05/27 00:32:56;;;;;;;14.13;10.77;;;;;;;22.97;90.65;99722.34;5092097;28;20286;-59
2022/05/27 00:35:23;;;;;;;14.23;10.50;;;;;;;22.98;90.16;99716.09;5092437;28;20252;-59
2022/05/27 00:37:50;;;;;;;11.73;10.20;;;;;;;22.95;90.26;99726.06;5092092;28;20223;-59
2022/05/27 00:40:21;;;;;;;14.38;10.75;;;;;;;22.93;90.50;99718.25;5092387;28;20195;-60
2022/05/27 00:42:48;;;;;;;16.58;10.38;;;;;;;22.87;90.74;99717.88;5092074;28;20282;-59
2022/05/27 00:45:18;;;;;;;12.82;10.68;;;;;;;22.81;91.31;99714.72;5092066;28;20322;-59
2022/05/27 00:47:47;;;;;;;14.82;10.35;;;;;;;22.79;91.33;99711.38;5092126;28;20205;-59
2022/05/27 00:50:18;;;;;;;14.68;10.23;;;;;;;22.73;91.70;99713.59;5092164;28;20192;-60
2022/05/27 00:52:48;;;;;;;13.18;10.50;;;;;;;22.70;92.14;99716.47;5092403;28;20571;-59
2022/05/27 00:55:20;;;;;;;16.17;10.00;;;;;;;22.68;91.84;99713.13;5092060;28;20203;-61
2022/05/27 00:57:51;;;;;;;11.43;10.20;;;;;;;22.65;92.22;99713.34;5091894;28;20652;-60
2022/05/27 01:00:22;;;;;;;11.90;9.77;;;;;;;22.62;92.46;99709.13;5091613;28;20198;-60
2022/05/27 01:02:50;;;;;;;15.05;9.93;;;;;;;22.61;92.29;99720.66;5091333;28;20191;-60
2022/05/27 01:05:23;;;;;;;17.80;9.90;;;;;;;22.44;93.13;99711.34;5091891;28;20194;-60
2022/05/27 01:07:52;;;;;;;11.38;9.90;;;;;;;22.50;92.83;99719.78;5091708;28;20188;-59
2022/05/27 01:10:21;;;;;;;18.60;9.65;;;;;;;22.48;92.85;99717.22;5091530;28;20252;-60
2022/05/27 01:13:12;;;;;;;13.48;9.77;;;;;;;22.48;92.60;99717.22;5091481;28;20235;-61
2022/05/27 01:15:52;;;;;;;11.25;9.60;;;;;;;22.51;92.60;99718.81;5084218;28;20195;-61
2022/05/27 01:21:17;;;;;;;14.43;9.50;;;;;;;22.34;93.32;99718.28;5091312;28;20253;-60
2022/05/27 01:24:09;;;;;;;20.42;9.55;;;;;;;22.30;94.01;99722.09;5091446;28;20199;-60
2022/05/27 01:27:02;;;;;;;16.35;10.50;;;;;;;22.23;93.98;99714.75;5091376;28;20199;-60
2022/05/27 01:29:46;;;;;;;15.85;9.27;;;;;;;22.19;94.25;99722.06;5091322;28;20199;-59
2022/05/27 01:32:18;;;;;;;12.10;10.40;;;;;;;22.19;94.12;99718.56;5091397;28;20191;-60
2022/05/27 01:34:53;;;;;;;17.50;9.82;;;;;;;22.18;94.02;99724.81;5091214;28;20195;-61
2022/05/27 01:37:27;;;;;;;14.25;10.07;;;;;;;22.18;93.62;99723.00;5091174;28;20280;-59
2022/05/27 01:40:03;;;;;;;14.65;9.82;;;;;;;22.20;93.32;99715.81;5091066;28;20198;-60
2022/05/27 01:42:37;;;;;;;11.18;9.73;;;;;;;22.15;93.56;99717.94;5091151;28;20589;-60
2022/05/27 01:45:10;;;;;;;11.23;9.70;;;;;;;22.15;93.52;99720.56;5090719;28;20227;-60
2022/05/27 01:47:43;;;;;;;14.88;9.85;;;;;;;22.09;94.00;99718.41;5091025;28;20202;-59
2022/05/27 01:50:15;;;;;;;11.60;10.32;;;;;;;22.11;93.96;99719.13;5090974;28;20203;-60
2022/05/27 01:52:48;;;;;;;17.88;10.55;;;;;;;22.00;93.73;99704.06;5091182;28;20203;-60
2022/05/27 01:55:20;;;;;;;11.07;9.73;;;;;;;22.03;93.57;99714.38;5090937;28;20202;-59
2022/05/27 01:57:51;;;;;;;10.18;9.15;;;;;;;22.08;93.45;99724.63;5090816;28;20226;-60
2022/05/27 02:00:22;;;;;;;13.73;10.25;;;;;;;22.03;94.22;99729.41;5090536;28;20286;-59
2022/05/27 02:02:55;;;;;;;17.90;10.57;;;;;;;22.02;94.32;99736.47;5090490;28;20201;-59
2022/05/27 02:05:32;;;;;;;10.40;9.38;;;;;;;21.94;94.58;99728.25;5090374;28;20693;-60
2022/05/27 02:08:02;;;;;;;14.85;10.27;;;;;;;21.97;94.83;99727.19;5090037;28;20212;-60
2022/05/27 02:10:34;;;;;;;11.38;10.05;;;;;;;21.85;95.32;99722.78;5089937;28;20586;-59
2022/05/27 02:13:08;;;;;;;12.65;9.90;;;;;;;21.63;95.79;99686.50;5088862;28;20656;-59
2022/05/27 02:15:40;;;;;;;11.85;9.57;;;;;;;21.84;96.38;99723.72;5089973;28;20282;-59
2022/05/27 02:18:14;;;;;;;14.40;10.70;;;;;;;21.78;97.01;99732.13;5090064;28;20598;-59
2022/05/27 02:20:47;;;;;;;11.27;10.15;;;;;;;21.77;97.17;99730.41;5090607;28;20694;-59
2022/05/27 02:23:21;;;;;;;12.02;10.48;;;;;;;21.77;96.92;99722.50;5090246;28;20561;-58
2022/05/27 02:25:50;;;;;;;16.02;11.00;;;;;;;21.79;96.29;99729.31;5090518;28;20667;-59
2022/05/27 02:28:20;;;;;;;11.95;10.93;;;;;;;21.76;96.83;99734.00;5090383;28;20194;-59
2022/05/27 02:30:51;;;;;;;13.02;10.57;;;;;;;21.70;96.99;99730.84;5090392;28;20205;-59
2022/05/27 02:36:15;;;;;;;12.35;9.93;;;;;;;21.66;97.35;99741.75;5090234;28;20198;-60
2022/05/27 02:38:42;;;;;;;18.27;10.65;;;;;;;21.64;97.46;99738.38;5090177;28;20225;-60
2022/05/27 02:41:16;;;;;;;11.77;10.50;;;;;;;21.61;97.76;99741.22;5090025;28;20227;-59
2022/05/27 02:44:13;;;;;;;14.88;10.27;;;;;;;21.61;98.08;99746.50;5090089;28;20194;-59
2022/05/27 02:46:50;;;;;;;16.02;10.20;;;;;;;21.57;98.08;99748.50;5090037;28;20235;-60
2022/05/27 02:49:27;;;;;;;12.85;11.25;;;;;;;21.58;98.50;99736.16;5090259;28;20209;-61
2022/05/27 02:52:05;;;;;;;14.82;10.57;;;;;;;21.65;97.86;99738.25;5089942;28;20214;-61
2022/05/27 02:54:42;;;;;;;12.23;10.73;;;;;;;21.61;97.90;99731.50;5089836;28;20590;-60
2022/05/27 02:57:15;;;;;;;10.82;9.65;;;;;;;21.66;97.40;99741.75;5089657;28;20278;-61
2022/05/27 02:59:42;;;;;;;15.57;11.07;;;;;;;;;;5088789;28;20211;-60
2022/05/27 03:02:12;;;;;;;11.65;10.30;;;;;;;21.69;96.68;99741.50;5088205;28;20195;-59
2022/05/27 03:04:44;;;;;;;13.20;10.35;;;;;;;21.71;96.50;99740.47;5088647;28;20195;-58
2022/05/27 03:07:30;;;;;;;13.65;10.65;;;;;;;21.70;96.58;99741.41;5071108;28;20239;-60
2022/05/27 03:10:15;;;;;;;18.45;10.85;;;;;;;21.69;95.62;99739.72;5068672;28;20316;-60
2022/05/27 03:12:56;;;;;;;14.88;9.68;;;;;;;21.73;95.18;99738.56;5069107;28;20224;-60
2022/05/27 03:15:34;;;;;;;10.25;9.15;;;;;;;21.88;94.29;99741.06;5069093;28;20211;-60
2022/05/27 03:18:17;;;;;;;11.45;10.00;;;;;;;21.98;92.82;99744.72;5068635;28;20223;-60
2022/05/27 03:20:50;;;;;;;13.38;9.85;;;;;;;22.04;92.89;99736.38;5069251;28;20231;-59
2022/05/27 03:23:37;;;;;;;11.88;10.15;;;;;;;22.12;91.73;99735.84;5081603;28;20231;-59
2022/05/27 03:26:16;;;;;;;14.30;10.02;;;;;;;22.12;91.00;99744.63;5089386;28;20262;-58
2022/05/27 03:28:54;;;;;;;12.50;10.07;;;;;;;22.17;90.82;99744.25;5091369;28;20225;-59
2022/05/27 03:31:31;;;;;;;11.23;9.82;;;;;;;22.24;89.52;99742.84;5091801;28;20628;-59
2022/05/27 03:34:07;;;;;;;18.55;10.27;;;;;;;22.41;88.77;99745.97;5089585;28;20225;-59
2022/05/27 03:36:40;;;;;;;11.93;9.75;;;;;;;22.56;87.41;99743.13;5089900;28;20605;-59
2022/05/27 03:39:12;;;;;;;15.85;9.45;;;;;;;22.63;86.45;99736.41;5088085;28;20219;-59
2022/05/27 03:41:45;;;;;;;17.92;9.98;;;;;;;22.83;85.39;99751.66;5091563;28;20219;-58
2022/05/27 03:44:15;;;;;;;14.68;10.00;;;;;;;22.95;84.25;99742.78;5088759;28;20269;-59
2022/05/27 03:46:42;;;;;;;14.63;10.27;;;;;;;23.02;83.85;99743.19;5090891;28;20621;-59
2022/05/27 03:49:09;;;;;;;16.65;9.25;;;;;;;23.39;81.55;99744.66;5089958;28;20597;-59
2022/05/27 03:51:46;;;;;;;11.80;9.98;;;;;;;24.26;76.63;99736.91;5090984;28;20219;-58
2022/05/27 03:54:14;;;;;;;12.98;9.90;;;;;;;25.33;69.76;99741.06;5086333;28;20215;-58
2022/05/27 03:56:43;;;;;;;14.38;9.05;;;;;;;26.16;65.55;99747.09;5090518;28;20294;-59
2022/05/27 03:59:13;;;;;;;10.05;8.93;;;;;;;27.03;60.86;99748.84;5090277;28;20231;-59
2022/05/27 04:01:42;;;;;;;15.05;9.07;;;;;;;27.30;58.87;99748.06;5091586;28;20215;-59
2022/05/27 04:04:11;;;;;;;11.63;9.63;;;;;;;28.04;56.43;99755.19;5091606;28;20608;-59
2022/05/27 04:06:39;;;;;;;12.18;9.15;;;;;;;29.00;52.68;99754.50;5090197;28;20188;-60
2022/05/27 04:09:07;;;;;;;9.73;8.63;;;;;;;29.32;51.54;99763.72;5091417;28;20238;-60
2022/05/27 04:11:34;;;;;;;12.27;9.02;;;;;;;29.69;50.28;99758.06;5088625;28;20599;-59
2022/05/27 04:14:01;;;;;;;11.20;8.48;;;;;;;30.10;48.80;99730.50;5090634;28;20709;-60
2022/05/27 04:16:29;;;;;;;13.20;8.85;;;;;;;30.55;47.79;99761.41;5089855;28;20601;-59
2022/05/27 04:18:55;;;;;;;12.48;8.65;;;;;;;31.26;46.28;99760.75;5091857;28;20219;-60
2022/05/27 04:21:23;;;;;;;9.95;8.27;;;;;;;31.74;44.87;99755.22;5091636;28;20209;-58
2022/05/27 04:23:52;;;;;;;14.82;8.60;;;;;;;32.15;43.77;99757.72;5091701;28;20278;-56
2022/05/27 04:26:19;;;;;;;13.43;8.82;;;;;;;32.46;42.49;99766.63;5091659;28;20199;-56
2022/05/27 04:28:46;;;;;;;12.52;9.10;;;;;;;33.02;42.08;99764.53;5091783;28;20196;-57
2022/05/27 04:31:13;;;;;;;12.80;8.32;;;;;;;33.45;40.91;99762.94;5086985;28;20223;-57
2022/05/27 04:33:40;;;;;;;13.23;9.43;;;;;;;33.72;40.52;99757.91;5090503;28;20229;-58
2022/05/27 04:36:08;;;;;;;17.00;8.85;;;;;;;33.80;39.94;99758.66;5089871;28;20226;-58
2022/05/27 04:38:37;;;;;;;17.55;8.43;;;;;;;34.22;39.18;99755.22;5089660;28;20322;-57
2022/05/27 04:41:06;;;;;;;10.38;8.38;;;;;;;34.86;37.66;99757.16;5091454;28;20191;-58
2022/05/27 04:43:33;;;;;;;12.10;8.07;;;;;;;35.19;37.05;99760.94;5091199;28;20202;-56
2022/05/27 04:46:00;;;;;;;9.80;8.25;;;;;;;35.68;36.20;99768.09;5091748;28;20747;-56
2022/05/27 04:48:28;;;;;;;22.00;8.30;;;;;;;35.72;35.93;99758.56;5090820;28;20549;-57
2022/05/27 04:50:55;;;;;;;11.50;8.13;;;;;;;36.00;35.36;99767.47;5090351;28;20203;-57
2022/05/27 04:53:22;;;;;;;12.20;8.40;;;;;;;36.30;34.53;99767.16;5090988;28;20205;-57
2022/05/27 04:55:49;;;;;;;13.60;8.93;;;;;;;36.42;34.90;99757.44;5090774;28;20675;-57
2022/05/27 04:58:17;;;;;;;14.70;8.73;;;;;;;36.57;33.91;99741.81;5091449;28;20191;-58
2022/05/27 05:00:47;;;;;;;11.77;9.00;;;;;;;36.90;33.56;99760.00;5091869;28;20191;-58
2022/05/27 05:03:15;;;;;;;16.30;9.07;;;;;;;37.33;33.21;99765.81;5091555;28;20198;-58
2022/05/27 05:05:42;;;;;;;14.38;8.85;;;;;;;37.74;32.39;99766.34;5091727;28;20191;-58
2022/05/27 05:08:18;;;;;;;17.10;8.88;;;;;;;37.81;31.89;99765.50;5091583;28;20199;-58
2022/05/27 05:10:45;;;;;;;17.63;9.00;;;;;;;37.92;32.21;99760.25;5091726;28;20198;-57
2022/05/27 05:13:12;;;;;;;27.83;9.15;;;;;;;38.15;31.57;99760.53;5083914;28;20800;-57
2022/05/27 05:15:40;;;;;;;9.65;8.57;;;;;;;38.22;31.27;99757.81;5090890;28;20221;-57
2022/05/27 05:18:08;;;;;;;13.60;8.85;;;;;;;38.56;31.04;99763.88;5090792;28;20218;-57
2022/05/27 05:20:35;;;;;;;12.60;8.15;;;;;;;38.70;30.77;99755.44;5090804;28;20214;-57
2022/05/27 05:23:03;;;;;;;18.98;8.75;;;;;;;38.67;30.53;99755.88;5090076;28;20310;-56
2022/05/27 05:25:32;;;;;;;10.93;8.35;;;;;;;38.70;30.29;99757.31;5090906;28;20301;-57
2022/05/27 05:27:59;;;;;;;11.38;8.25;;;;;;;39.15;29.94;99755.28;5090984;28;20222;-58
2022/05/27 05:30:27;;;;;;;20.33;7.60;;;;;;;39.47;29.00;99740.56;5090945;28;20222;-57
2022/05/27 05:32:55;;;;;;;14.20;7.93;;;;;;;39.37;29.05;99759.22;5090523;28;20223;-58
2022/05/27 05:35:23;;;;;;;11.30;9.93;;;;;;;39.40;29.23;99750.63;5090532;28;20225;-57
2022/05/27 05:37:50;;;;;;;17.63;9.32;;;;;;;39.52;29.09;99743.41;5090449;28;20219;-58
2022/05/27 05:40:18;;;;;;;12.85;8.30;;;;;;;39.85;28.56;99759.34;5090344;28;20313;-58
2022/05/27 05:42:47;;;;;;;15.50;8.93;;;;;;;39.36;28.82;99759.47;5090623;28;20223;-57
2022/05/27 05:45:16;;;;;;;13.52;8.27;;;;;;;39.31;28.50;99760.13;5089879;28;20239;-57
2022/05/27 05:47:43;;;;;;;9.30;7.72;;;;;;;38.99;29.16;99767.53;5090191;28;20248;-58
2022/05/27 05:50:13;;;;;;;16.20;8.50;;;;;;;38.99;29.13;99761.28;5090369;28;20578;-58
2022/05/27 05:52:40;;;;;;;16.88;9.73;;;;;;;38.55;29.46;99767.66;5090422;28;20218;-59
2022/05/27 05:55:08;;;;;;;8.65;7.88;;;;;;;38.61;29.96;99764.03;5100670;27;20710;-59
2022/05/27 05:57:39;;;;;;;12.80;9.00;;;;;;;39.05;29.30;99763.13;5109995;28;20197;-59
2022/05/27 06:00:07;;;;;;;9.80;8.10;;;;;;;38.69;29.39;99764.63;5110007;28;20226;-58
2022/05/27 06:02:34;;;;;;;13.88;8.50;;;;;;;38.92;29.50;99760.47;5111059;28;20207;-59
2022/05/27 06:05:03;;;;;;;15.40;8.32;;;;;;;39.06;29.47;99760.16;5111072;28;20194;-59
2022/05/27 06:07:32;;;;;;;12.60;7.85;;;;;;;39.14;29.16;99759.06;5111244;28;20194;-59
2022/05/27 06:09:59;;;;;;;10.65;8.50;;;;;;;38.88;29.32;99756.53;5111108;28;20194;-58
2022/05/27 06:12:26;;;;;;;39.40;10.85;;;;;;;39.05;28.92;99753.09;5110792;28;20197;-58
2022/05/27 06:14:54;;;;;;;54.85;10.25;;;;;;;39.46;28.95;99757.91;5111026;28;20202;-58
2022/05/27 06:17:21;;;;;;;19.75;9.32;;;;;;;39.70;27.88;99750.75;5110848;28;20204;-58
2022/05/27 06:19:48;;;;;;;20.77;9.68;;;;;;;39.53;28.09;99755.09;5110714;28;20283;-58
2022/05/27 06:22:15;;;;;;;13.45;8.35;;;;;;;38.91;28.49;99753.38;5110659;28;20194;-58
2022/05/27 06:24:44;;;;;;;8.52;7.60;;;;;;;38.87;28.84;99747.56;5110834;28;20562;-59
2022/05/27 06:27:11;;;;;;;13.27;8.20;;;;;;;38.85;28.40;99757.81;5110574;28;20743;-59
2022/05/27 06:35:08;;;;;;;12.43;7.10;;;;;;;37.68;29.34;99736.56;5110557;28;20281;-58
2022/05/27 06:37:35;;;;;;;13.63;7.68;;;;;;;37.65;29.20;99726.16;5110620;28;20196;-59
2022/05/27 06:40:05;;;;;;;13.23;7.35;;;;;;;37.24;30.25;99737.31;5110707;28;20221;-59
2022/05/27 06:42:32;;;;;;;12.57;7.45;;;;;;;37.13;30.40;99737.91;5111017;28;20190;-58
2022/05/27 06:44:59;;;;;;;11.85;8.02;;;;;;;37.41;29.93;99746.63;5110183;28;20234;-59
2022/05/27 06:47:26;;;;;;;10.77;7.50;;;;;;;37.06;29.37;99729.78;5110608;28;20603;-58
2022/05/27 06:49:53;;;;;;;66.90;12.35;;;;;;;36.90;30.55;99741.88;5093800;28;20218;-59
2022/05/27 06:52:20;;;;;;;11.43;7.55;;;;;;;36.26;31.23;99731.59;5089023;28;20199;-59
2022/05/27 06:54:47;;;;;;;33.33;9.38;;;;;;;36.21;31.48;99727.81;5089734;28;20217;-59
2022/05/27 06:57:16;;;;;;;12.48;7.07;;;;;;;36.51;30.98;99737.25;5090008;28;20195;-59
2022/05/27 06:59:43;;;;;;;24.30;8.27;;;;;;;36.55;31.59;99734.97;5092345;28;20262;-59
2022/05/27 07:02:10;;;;;;;15.80;7.38;;;;;;;36.77;31.39;99714.00;5094148;28;20191;-59
2022/05/27 07:04:37;;;;;;;12.07;7.43;;;;;;;36.95;30.68;99733.13;5094128;28;20199;-59
2022/05/27 07:07:05;;;;;;;11.15;8.05;;;;;;;36.92;30.74;99730.81;5094315;28;20611;-59
2022/05/27 07:09:35;;;;;;;8.63;6.93;;;;;;;36.89;30.58;99728.56;5094489;28;20205;-58
2022/05/27 07:12:05;;;;;;;11.07;7.15;;;;;;;37.41;30.17;99723.09;5094338;28;20282;-59
2022/05/27 07:14:33;;;;;;;12.60;7.47;;;;;;;37.46;30.63;99727.88;5094307;28;20609;-59
2022/05/27 07:17:01;;;;;;;11.70;6.53;;;;;;;37.50;30.60;99720.97;5093502;28;20277;-58
2022/05/27 07:19:28;;;;;;;9.40;5.63;;;;;;;37.50;29.75;99720.97;5092907;28;20219;-60
2022/05/27 07:21:56;;;;;;;7.47;6.53;;;;;;;37.57;29.44;99715.53;5093714;28;20277;-59
2022/05/27 07:24:25;;;;;;;51.72;8.90;;;;;;;37.61;29.72;99709.47;5094272;28;20230;-59
2022/05/27 07:26:52;;;;;;;25.42;8.75;;;;;;;37.53;29.73;99712.41;5093563;28;20202;-59
2022/05/27 07:29:19;;;;;;;53.00;10.77;;;;;;;37.43;29.98;99710.16;5093731;28;20199;-58
2022/05/27 07:31:47;;;;;;;27.05;8.68;;;;;;;37.37;30.21;99708.28;5094031;28;20240;-59
2022/05/27 07:34:14;;;;;;;27.65;8.77;;;;;;;37.27;29.84;99702.50;5093731;28;20199;-59
2022/05/27 07:36:41;;;;;;;18.30;8.57;;;;;;;37.84;29.24;99679.16;5093557;28;20647;-59
2022/05/27 07:39:08;;;;;;;15.55;6.75;;;;;;;38.31;28.56;99696.84;5093321;28;20309;-59
2022/05/27 07:41:37;;;;;;;14.75;6.13;;;;;;;38.14;27.87;99696.56;5094073;28;20198;-59
2022/05/27 07:44:05;;;;;;;40.72;9.93;;;;;;;38.11;28.51;99698.88;5093270;28;20195;-59
2022/05/27 07:46:33;;;;;;;23.58;7.78;;;;;;;38.73;27.61;99700.69;5093296;28;20227;-58
2022/05/27 07:49:04;;;;;;;15.68;6.32;;;;;;;39.16;26.85;99694.50;5093502;28;20199;-58
2022/05/27 07:51:31;;;;;;;9.10;5.80;;;;;;;39.65;25.56;99698.13;5093237;28;20195;-58
2022/05/27 07:53:58;;;;;;;6.47;5.22;;;;;;;39.60;25.39;99695.28;5093120;28;20194;-57
2022/05/27 07:56:25;;;;;;;6.88;5.95;;;;;;;39.80;24.99;99695.84;5092527;28;20197;-57
2022/05/27 07:58:52;;;;;;;15.95;6.35;;;;;;;40.26;24.63;99689.75;5092836;28;20201;-59
2022/05/27 08:01:19;;;;;;;10.35;6.80;;;;;;;40.35;25.11;99691.13;5093143;28;20219;-59
2022/05/27 08:03:46;;;;;;;11.85;5.90;;;;;;;40.36;24.57;99689.22;5093082;28;20191;-59
2022/05/27 08:06:14;;;;;;;28.25;5.70;;;;;;;40.51;24.49;99687.72;5092920;28;20195;-60
2022/05/27 08:08:41;;;;;;;9.23;4.90;;;;;;;40.73;23.51;99685.28;5093426;28;20187;-59
2022/05/27 08:11:08;;;;;;;8.45;4.50;;;;;;;40.59;23.00;99690.09;5092884;28;20663;-58
2022/05/27 08:13:36;;;;;;;8.82;6.63;;;;;;;40.49;22.82;99669.97;5093035;28;20202;-60
2022/05/27 08:16:03;;;;;;;8.55;5.15;;;;;;;40.77;22.39;99680.19;5092963;28;20191;-60
2022/05/27 08:18:30;;;;;;;8.07;4.53;;;;;;;40.95;22.68;99680.06;5093387;28;20608;-58
2022/05/27 08:20:57;;;;;;;9.55;4.53;;;;;;;40.71;22.89;99681.97;5092619;28;20233;-59
2022/05/27 08:23:25;;;;;;;4.47;3.53;;;;;;;40.50;22.68;99682.50;5092798;28;20190;-59
2022/05/27 08:25:55;;;;;;;6.07;3.35;;;;;;;39.52;23.42;99672.78;5092542;28;20195;-59
2022/05/27 08:28:24;;;;;;;22.48;5.57;;;;;;;39.07;23.99;99668.66;5092967;28;20198;-59
2022/05/27 08:30:55;;;;;;;59.60;8.35;;;;;;;38.98;24.55;99670.84;5092922;28;20655;-59
2022/05/27 08:33:23;;;;;;;25.13;6.07;;;;;;;38.71;25.18;99654.00;5092709;28;20579;-59
2022/05/27 08:38:52;;;;;;;7.32;3.53;;;;;;;37.95;25.23;99655.97;5049575;28;20192;-60
2022/05/27 08:41:40;;;;;;;23.42;5.15;;;;;;;37.39;26.09;99649.34;5050013;28;20768;-59
2022/05/27 08:44:19;;;;;;;10.52;5.05;;;;;;;37.34;25.65;99651.03;5074510;28;20190;-59
2022/05/27 08:46:55;;;;;;;12.98;4.68;;;;;;;37.58;25.89;99649.50;5091838;28;20223;-59
2022/05/27 08:49:27;;;;;;;6.13;4.35;;;;;;;37.65;26.54;99648.44;5092353;28;20224;-58
2022/05/27 08:52:01;;;;;;;7.65;3.92;;;;;;;37.54;25.91;99626.59;5092192;28;20596;-58
2022/05/27 08:54:34;;;;;;;13.95;3.85;;;;;;;37.95;25.33;99643.25;5092159;28;20286;-58
2022/05/27 08:59:50;;;;;;;8.70;3.35;;;;;;;37.69;24.38;99649.69;5092035;28;20725;-58
2022/05/27 09:02:27;;;;;;;8.57;3.13;;;;;;;37.86;24.40;99643.72;5091800;28;20195;-57
2022/05/27 09:05:05;;;;;;;5.45;2.83;;;;;;;37.89;23.40;99648.72;5091882;28;20247;-59
2022/05/27 09:07:40;;;;;;;6.15;3.25;;;;;;;37.21;24.64;99638.38;5091811;28;20195;-59
2022/05/27 09:10:13;;;;;;;3.30;3.00;;;;;;;37.17;25.76;99636.31;5090093;28;20201;-57
2022/05/27 09:12:48;;;;;;;3.72;3.03;;;;;;;36.70;25.21;99617.44;5092127;28;20681;-57
2022/05/27 09:15:32;;;;;;;3.88;2.78;;;;;;;36.87;25.75;99633.25;5091734;28;20281;-57
2022/05/27 09:18:07;;;;;;;6.60;3.17;;;;;;;36.71;28.62;99621.81;5091524;28;20234;-58
2022/05/27 09:20:49;;;;;;;7.78;5.95;;;;;;;36.92;25.98;99619.88;5091580;28;20218;-59
2022/05/27 09:23:34;;;;;;;9.75;8.95;;;;;;;37.15;25.42;99614.00;5090894;28;20194;-57
2022/05/27 09:26:11;;;;;;;7.75;7.07;;;;;;;37.34;25.37;99613.97;5091478;28;20696;-58
2022/05/27 09:28:47;;;;;;;5.15;3.85;;;;;;;36.92;24.23;99604.50;5091425;28;20331;-59
2022/05/27 09:31:18;;;;;;;5.35;3.70;;;;;;;36.57;25.64;99606.59;5091283;28;20191;-59
2022/05/27 09:33:47;;;;;;;4.05;3.22;;;;;;;36.36;25.76;99602.25;5091080;28;20214;-59
2022/05/27 09:36:17;;;;;;;6.32;2.80;;;;;;;36.48;25.73;99599.75;5086178;28;20187;-59
2022/05/27 09:38:51;;;;;;;5.25;3.10;;;;;;;36.43;25.08;99587.91;5087077;28;20202;-59
2022/05/27 09:41:27;;;;;;;6.38;2.78;;;;;;;36.10;25.19;99582.50;5090035;28;20643;-59
2022/05/27 09:44:07;;;;;;;4.75;3.58;;;;;;;36.03;26.34;99582.47;5087860;28;20203;-57
2022/05/27 09:46:35;;;;;;;3.60;3.08;;;;;;;36.17;25.77;99567.94;5087335;28;20298;-58
2022/05/27 09:49:02;;;;;;;7.50;6.72;;;;;;;36.40;26.55;99572.94;5088961;28;20207;-58
2022/05/27 09:51:32;;;;;;;9.38;5.95;;;;;;;36.30;26.28;99570.66;5088480;28;20187;-59
2022/05/27 09:54:05;;;;;;;22.67;19.80;;;;;;;36.36;26.71;99577.94;5088573;28;20191;-58
2022/05/27 09:56:39;;;;;;;10.93;4.53;;;;;;;36.31;25.62;99575.03;5087067;28;20210;-59
2022/05/27 09:59:22;;;;;;;6.60;5.38;;;;;;;36.19;26.21;99570.44;5089443;28;20621;-59
2022/05/27 10:01:49;;;;;;;5.85;3.63;;;;;;;36.55;25.51;99561.91;5087110;28;20218;-59
2022/05/27 10:04:21;;;;;;;6.93;4.20;;;;;;;36.66;25.99;99556.69;5089427;28;20705;-57
2022/05/27 10:06:48;;;;;;;4.18;3.65;;;;;;;36.22;25.88;99559.25;5086528;28;20191;-59
2022/05/27 10:09:27;;;;;;;6.13;4.20;;;;;;;36.21;26.34;99562.94;5089262;28;20191;-60
2022/05/27 10:11:58;;;;;;;3.63;3.33;;;;;;;35.84;25.95;99548.16;5087419;28;20195;-57
2022/05/27 10:14:28;;;;;;;4.60;3.72;;;;;;;35.47;26.18;99544.94;5088949;28;20198;-59
2022/05/27 10:17:09;;;;;;;6.43;5.25;;;;;;;35.10;26.87;99530.09;5089027;28;20195;-59
2022/05/27 10:19:38;;;;;;;9.50;6.40;;;;;;;34.71;27.93;99527.16;5087512;28;20230;-58
2022/05/27 10:22:08;;;;;;;11.05;8.50;;;;;;;34.65;28.18;99526.13;5088724;28;20300;-59
2022/05/27 10:24:38;;;;;;;8.63;5.80;;;;;;;34.57;27.66;99524.38;5088955;28;20221;-58
2022/05/27 10:27:10;;;;;;;10.07;6.57;;;;;;;34.46;27.63;99516.03;5088524;28;20281;-58
2022/05/27 10:29:51;;;;;;;11.50;8.43;;;;;;;34.43;28.11;99517.25;5088845;28;20249;-62
2022/05/27 10:32:31;;;;;;;25.08;17.27;;;;;;;34.27;28.13;99514.03;5087524;28;20195;-61
2022/05/27 10:34:59;;;;;;;7.35;4.13;;;;;;;34.02;27.87;99511.75;5086674;28;20203;-61
2022/05/27 10:37:44;;;;;;;7.95;5.88;;;;;;;33.94;28.25;99502.97;5088589;28;20191;-61
2022/05/27 10:40:29;;;;;;;7.93;5.15;;;;;;;33.94;28.51;99479.56;5086703;28;20710;-61
2022/05/27 10:43:07;;;;;;;7.75;3.65;;;;;;;34.12;28.46;99492.53;5087584;28;20191;-60
2022/05/27 10:45:39;;;;;;;5.32;3.67;;;;;;;34.23;27.93;99490.13;5086562;28;20829;-60
2022/05/27 10:48:35;;;;;;;6.07;4.38;;;;;;;34.27;27.83;99487.94;5088401;28;20195;-61
2022/05/27 10:51:09;;;;;;;11.70;5.13;;;;;;;34.28;28.29;99484.19;5087661;28;20257;-61
2022/05/27 10:54:05;;;;;;;7.93;4.95;;;;;;;34.14;28.44;99483.25;5087180;28;20590;-61
2022/05/27 10:56:43;;;;;;;8.60;4.60;;;;;;;34.12;28.61;99473.69;5084847;28;20191;-59
2022/05/27 11:02:30;;;;;;;5.45;4.80;;;;;;;33.70;29.50;99470.03;5086534;28;20218;-59
2022/05/27 11:05:20;;;;;;;6.95;4.30;;;;;;;33.76;29.03;99463.03;5087087;28;20221;-59
2022/05/27 11:08:00;;;;;;;13.07;4.63;;;;;;;33.79;28.60;99459.97;5085721;28;20203;-61
2022/05/27 11:10:43;;;;;;;6.45;3.92;;;;;;;33.83;28.14;99451.31;5088597;28;20205;-60
2022/05/27 11:16:23;;;;;;;5.00;4.25;;;;;;;33.73;28.63;99453.50;5088374;28;20728;-58
2022/05/27 11:19:02;;;;;;;7.25;4.13;;;;;;;33.88;29.12;99448.03;5085955;28;20203;-57
2022/05/27 11:21:46;;;;;;;8.32;3.88;;;;;;;33.75;29.07;99443.38;5086037;28;20609;-58
2022/05/27 11:24:50;;;;;;;9.40;4.65;;;;;;;33.83;29.17;99451.31;5086650;28;20222;-59
2022/05/27 11:27:33;;;;;;;9.63;3.67;;;;;;;33.93;28.55;99450.13;5061142;28;20274;-59
2022/05/27 11:30:18;;;;;;;7.25;3.83;;;;;;;33.66;28.23;99447.19;5087471;28;20679;-59
2022/05/27 11:33:10;;;;;;;9.80;3.92;;;;;;;33.60;28.95;99453.38;5088321;28;20282;-60
2022/05/27 11:35:51;;;;;;;7.25;3.47;;;;;;;33.45;30.07;99449.91;5071085;28;20203;-60
2022/05/27 11:38:51;;;;;;;12.35;5.43;;;;;;;33.21;29.52;99448.41;5087246;28;20195;-58
2022/05/27 11:41:24;;;;;;;7.93;3.63;;;;;;;33.20;29.46;99425.19;5086954;28;20211;-60
2022/05/27 11:44:02;;;;;;;10.68;4.10;;;;;;;33.32;29.51;99439.00;5085936;28;20192;-60
2022/05/27 11:46:48;;;;;;;9.27;3.55;;;;;;;33.37;29.18;99434.72;5088917;28;20223;-60
2022/05/27 11:49:36;;;;;;;7.93;4.45;;;;;;;33.54;29.88;99432.59;5090268;28;20213;-59
2022/05/27 11:52:26;;;;;;;4.40;4.00;;;;;;;33.74;29.52;99422.00;5091491;28;20686;-60
2022/05/27 11:55:22;;;;;;;4.40;3.45;;;;;;;33.78;28.90;99413.38;5089670;28;20202;-59
2022/05/27 11:58:05;;;;;;;17.67;4.55;;;;;;;33.94;29.19;99406.03;5088538;28;20286;-59
2022/05/27 12:00:39;;;;;;;5.65;3.83;;;;;;;33.85;29.09;99408.88;5089746;28;20219;-59
2022/05/27 12:03:12;;;;;;;16.13;4.35;;;;;;;33.72;29.39;99389.91;5090629;28;20678;-58
2022/05/27 12:05:45;;;;;;;9.55;3.80;;;;;;;33.74;29.58;99406.69;5092222;28;20192;-58
2022/05/27 12:08:27;;;;;;;8.00;3.80;;;;;;;33.64;29.19;99400.78;5090192;28;20207;-59
2022/05/27 12:10:59;;;;;;;9.70;4.35;;;;;;;33.63;29.99;99393.78;5085696;28;20667;-60
2022/05/27 12:13:30;;;;;;;7.95;4.05;;;;;;;33.65;30.21;99390.84;5092153;28;20195;-59